sensor_id;sensor_type;location;lat;lon;timestamp;P1;durP1;ratioP1;P2;durP2;ratioP2
21192;SDS011;10754;51.106;7.164;2023-08-20T00:00:10;4.50;;;3.42;;
21192;SDS011;10754;51.106;7.164;2023-08-20T00:02:37;5.93;;;3.40;;
21192;SDS011;10754;51.106;7.164;2023-08-20T00:05:04;6.00;;;3.53;;
21192;SDS011;10754;51.106;7.164;2023-08-20T00:07:31;3.80;;;3.22;;
21192;SDS011;10754;51.106;7.164;2023-08-20T00:09:57;3.60;;;3.20;;
21192;SDS011;10754;51.106;7.164;2023-08-20T00:12:23;3.85;;;2.95;;
21192;SDS011;10754;51.106;7.164;2023-08-20T00:14:55;6.25;;;3.45;;
21192;SDS011;10754;51.106;7.164;2023-08-20T00:17:32;7.97;;;3.42;;
21192;SDS011;10754;51.106;7.164;2023-08-20T00:19:58;3.72;;;3.42;;
21192;SDS011;10754;51.106;7.164;2023-08-20T00:22:24;4.40;;;3.60;;
21192;SDS011;10754;51.106;7.164;2023-08-20T00:24:50;3.88;;;3.47;;
21192;SDS011;10754;51.106;7.164;2023-08-20T00:27:20;6.57;;;3.78;;
21192;SDS011;10754;51.106;7.164;2023-08-20T00:29:46;5.35;;;2.90;;
21192;SDS011;10754;51.106;7.164;2023-08-20T00:32:11;5.65;;;3.65;;
21192;SDS011;10754;51.106;7.164;2023-08-20T00:34:37;4.25;;;3.20;;
21192;SDS011;10754;51.106;7.164;2023-08-20T00:37:02;7.97;;;3.60;;
21192;SDS011;10754;51.106;7.164;2023-08-20T00:39:28;5.47;;;3.30;;
21192;SDS011;10754;51.106;7.164;2023-08-20T00:41:54;4.13;;;3.08;;
21192;SDS011;10754;51.106;7.164;2023-08-20T00:44:20;6.82;;;3.50;;
21192;SDS011;10754;51.106;7.164;2023-08-20T00:46:46;5.03;;;3.45;;
21192;SDS011;10754;51.106;7.164;2023-08-20T00:49:12;5.70;;;3.78;;
21192;SDS011;10754;51.106;7.164;2023-08-20T00:51:38;7.97;;;3.60;;
21192;SDS011;10754;51.106;7.164;2023-08-20T00:54:04;4.47;;;3.47;;
21192;SDS011;10754;51.106;7.164;2023-08-20T00:56:30;5.15;;;3.72;;
21192;SDS011;10754;51.106;7.164;2023-08-20T00:58:56;6.50;;;3.50;;
21192;SDS011;10754;51.106;7.164;2023-08-20T01:01:22;6.45;;;3.35;;
21192;SDS011;10754;51.106;7.164;2023-08-20T01:03:48;4.85;;;3.33;;
21192;SDS011;10754;51.106;7.164;2023-08-20T01:08:49;5.13;;;3.38;;
21192;SDS011;10754;51.106;7.164;2023-08-20T01:11:33;5.60;;;3.13;;
21192;SDS011;10754;51.106;7.164;2023-08-20T01:14:02;5.78;;;3.65;;
21192;SDS011;10754;51.106;7.164;2023-08-20T01:16:38;6.68;;;3.42;;
21192;SDS011;10754;51.106;7.164;2023-08-20T01:19:04;5.70;;;3.15;;
21192;SDS011;10754;51.106;7.164;2023-08-20T01:21:37;4.40;;;3.38;;
21192;SDS011;10754;51.106;7.164;2023-08-20T01:24:15;5.22;;;3.42;;
21192;SDS011;10754;51.106;7.164;2023-08-20T01:27:27;5.60;;;3.30;;
21192;SDS011;10754;51.106;7.164;2023-08-20T01:30:09;4.35;;;3.47;;
21192;SDS011;10754;51.106;7.164;2023-08-20T01:32:36;3.83;;;3.50;;
21192;SDS011;10754;51.106;7.164;2023-08-20T01:35:03;5.35;;;3.90;;
21192;SDS011;10754;51.106;7.164;2023-08-20T01:37:29;5.18;;;3.40;;
21192;SDS011;10754;51.106;7.164;2023-08-20T01:39:54;5.03;;;3.53;;
21192;SDS011;10754;51.106;7.164;2023-08-20T01:42:20;3.50;;;3.20;;
21192;SDS011;10754;51.106;7.164;2023-08-20T01:44:45;5.38;;;3.35;;
21192;SDS011;10754;51.106;7.164;2023-08-20T01:47:11;4.95;;;3.28;;
21192;SDS011;10754;51.106;7.164;2023-08-20T01:49:36;5.13;;;3.20;;
21192;SDS011;10754;51.106;7.164;2023-08-20T01:52:02;3.70;;;3.20;;
21192;SDS011;10754;51.106;7.164;2023-08-20T01:54:28;4.72;;;3.30;;
21192;SDS011;10754;51.106;7.164;2023-08-20T01:56:54;5.57;;;3.00;;
21192;SDS011;10754;51.106;7.164;2023-08-20T01:59:21;4.07;;;3.70;;
21192;SDS011;10754;51.106;7.164;2023-08-20T02:01:46;6.63;;;3.20;;
21192;SDS011;10754;51.106;7.164;2023-08-20T02:04:12;4.80;;;3.10;;
21192;SDS011;10754;51.106;7.164;2023-08-20T02:06:37;4.68;;;3.20;;
21192;SDS011;10754;51.106;7.164;2023-08-20T02:09:03;4.88;;;3.10;;
21192;SDS011;10754;51.106;7.164;2023-08-20T02:11:29;5.00;;;3.28;;
21192;SDS011;10754;51.106;7.164;2023-08-20T02:13:55;4.75;;;3.30;;
21192;SDS011;10754;51.106;7.164;2023-08-20T02:16:21;3.95;;;2.90;;
21192;SDS011;10754;51.106;7.164;2023-08-20T02:18:47;5.20;;;3.50;;
21192;SDS011;10754;51.106;7.164;2023-08-20T02:21:12;3.45;;;3.00;;
21192;SDS011;10754;51.106;7.164;2023-08-20T02:23:38;5.85;;;3.30;;
21192;SDS011;10754;51.106;7.164;2023-08-20T02:26:03;5.15;;;3.83;;
21192;SDS011;10754;51.106;7.164;2023-08-20T02:28:29;4.15;;;3.20;;
21192;SDS011;10754;51.106;7.164;2023-08-20T02:30:54;5.28;;;3.42;;
21192;SDS011;10754;51.106;7.164;2023-08-20T02:33:20;4.38;;;3.13;;
21192;SDS011;10754;51.106;7.164;2023-08-20T02:35:45;7.30;;;3.25;;
21192;SDS011;10754;51.106;7.164;2023-08-20T02:38:11;4.78;;;2.95;;
21192;SDS011;10754;51.106;7.164;2023-08-20T02:40:40;8.13;;;2.83;;
21192;SDS011;10754;51.106;7.164;2023-08-20T02:43:06;6.30;;;3.35;;
21192;SDS011;10754;51.106;7.164;2023-08-20T02:45:32;3.85;;;3.00;;
21192;SDS011;10754;51.106;7.164;2023-08-20T02:47:58;5.78;;;3.40;;
21192;SDS011;10754;51.106;7.164;2023-08-20T02:50:24;6.20;;;3.50;;
21192;SDS011;10754;51.106;7.164;2023-08-20T02:52:49;4.82;;;3.10;;
21192;SDS011;10754;51.106;7.164;2023-08-20T02:55:15;6.55;;;3.83;;
21192;SDS011;10754;51.106;7.164;2023-08-20T02:57:40;6.15;;;3.72;;
21192;SDS011;10754;51.106;7.164;2023-08-20T03:00:06;5.65;;;3.28;;
21192;SDS011;10754;51.106;7.164;2023-08-20T03:02:36;4.93;;;3.38;;
21192;SDS011;10754;51.106;7.164;2023-08-20T03:05:01;7.05;;;3.55;;
21192;SDS011;10754;51.106;7.164;2023-08-20T03:07:30;6.47;;;3.50;;
21192;SDS011;10754;51.106;7.164;2023-08-20T03:09:55;3.33;;;2.90;;
21192;SDS011;10754;51.106;7.164;2023-08-20T03:12:21;3.75;;;3.30;;
21192;SDS011;10754;51.106;7.164;2023-08-20T03:14:46;7.75;;;3.47;;
21192;SDS011;10754;51.106;7.164;2023-08-20T03:17:12;5.45;;;3.13;;
21192;SDS011;10754;51.106;7.164;2023-08-20T03:19:47;5.55;;;3.45;;
21192;SDS011;10754;51.106;7.164;2023-08-20T03:22:31;6.95;;;3.65;;
21192;SDS011;10754;51.106;7.164;2023-08-20T03:24:56;5.63;;;3.38;;
21192;SDS011;10754;51.106;7.164;2023-08-20T03:27:22;5.43;;;3.35;;
21192;SDS011;10754;51.106;7.164;2023-08-20T03:29:47;3.63;;;3.00;;
21192;SDS011;10754;51.106;7.164;2023-08-20T03:32:13;5.15;;;2.95;;
21192;SDS011;10754;51.106;7.164;2023-08-20T03:34:38;5.35;;;3.20;;
21192;SDS011;10754;51.106;7.164;2023-08-20T03:37:04;3.45;;;3.13;;
21192;SDS011;10754;51.106;7.164;2023-08-20T03:39:30;4.97;;;3.50;;
21192;SDS011;10754;51.106;7.164;2023-08-20T03:41:58;4.00;;;3.08;;
21192;SDS011;10754;51.106;7.164;2023-08-20T03:44:24;3.63;;;3.33;;
21192;SDS011;10754;51.106;7.164;2023-08-20T03:46:49;3.75;;;3.42;;
21192;SDS011;10754;51.106;7.164;2023-08-20T03:49:15;4.53;;;3.67;;
21192;SDS011;10754;51.106;7.164;2023-08-20T03:51:40;4.15;;;3.22;;
21192;SDS011;10754;51.106;7.164;2023-08-20T03:54:07;4.38;;;3.17;;
21192;SDS011;10754;51.106;7.164;2023-08-20T03:56:33;5.05;;;3.22;;
21192;SDS011;10754;51.106;7.164;2023-08-20T03:58:59;6.93;;;3.38;;
21192;SDS011;10754;51.106;7.164;2023-08-20T04:01:24;3.70;;;3.17;;
21192;SDS011;10754;51.106;7.164;2023-08-20T04:03:50;3.75;;;3.13;;
21192;SDS011;10754;51.106;7.164;2023-08-20T04:06:15;6.60;;;3.58;;
21192;SDS011;10754;51.106;7.164;2023-08-20T04:08:41;4.00;;;3.10;;
21192;SDS011;10754;51.106;7.164;2023-08-20T04:11:06;4.88;;;3.95;;
21192;SDS011;10754;51.106;7.164;2023-08-20T04:13:32;5.82;;;3.45;;
21192;SDS011;10754;51.106;7.164;2023-08-20T04:15:58;4.90;;;3.70;;
21192;SDS011;10754;51.106;7.164;2023-08-20T04:18:23;5.72;;;3.45;;
21192;SDS011;10754;51.106;7.164;2023-08-20T04:20:52;3.92;;;3.50;;
21192;SDS011;10754;51.106;7.164;2023-08-20T04:23:19;4.88;;;4.10;;
21192;SDS011;10754;51.106;7.164;2023-08-20T04:25:44;4.75;;;4.20;;
21192;SDS011;10754;51.106;7.164;2023-08-20T04:28:10;3.97;;;3.58;;
21192;SDS011;10754;51.106;7.164;2023-08-20T04:30:36;5.55;;;3.85;;
21192;SDS011;10754;51.106;7.164;2023-08-20T04:33:02;4.03;;;3.58;;
21192;SDS011;10754;51.106;7.164;2023-08-20T04:35:28;3.75;;;3.33;;
21192;SDS011;10754;51.106;7.164;2023-08-20T04:37:54;4.32;;;3.92;;
21192;SDS011;10754;51.106;7.164;2023-08-20T04:40:19;5.03;;;3.50;;
21192;SDS011;10754;51.106;7.164;2023-08-20T04:42:45;5.85;;;3.78;;
21192;SDS011;10754;51.106;7.164;2023-08-20T04:45:11;4.45;;;3.95;;
21192;SDS011;10754;51.106;7.164;2023-08-20T04:47:37;3.95;;;3.58;;
21192;SDS011;10754;51.106;7.164;2023-08-20T04:50:03;6.68;;;3.67;;
21192;SDS011;10754;51.106;7.164;2023-08-20T04:52:31;4.75;;;3.35;;
21192;SDS011;10754;51.106;7.164;2023-08-20T04:54:57;5.53;;;4.20;;
21192;SDS011;10754;51.106;7.164;2023-08-20T04:57:23;6.30;;;3.70;;
21192;SDS011;10754;51.106;7.164;2023-08-20T04:59:48;4.30;;;3.33;;
21192;SDS011;10754;51.106;7.164;2023-08-20T05:02:14;5.20;;;3.80;;
21192;SDS011;10754;51.106;7.164;2023-08-20T05:04:39;4.70;;;3.92;;
21192;SDS011;10754;51.106;7.164;2023-08-20T05:07:05;4.07;;;3.60;;
21192;SDS011;10754;51.106;7.164;2023-08-20T05:09:31;4.50;;;4.07;;
21192;SDS011;10754;51.106;7.164;2023-08-20T05:11:57;3.47;;;3.17;;
21192;SDS011;10754;51.106;7.164;2023-08-20T05:14:23;4.40;;;3.60;;
21192;SDS011;10754;51.106;7.164;2023-08-20T05:16:48;5.93;;;3.80;;
21192;SDS011;10754;51.106;7.164;2023-08-20T05:19:14;3.65;;;3.35;;
21192;SDS011;10754;51.106;7.164;2023-08-20T05:21:39;3.95;;;3.50;;
21192;SDS011;10754;51.106;7.164;2023-08-20T05:24:05;5.95;;;3.92;;
21192;SDS011;10754;51.106;7.164;2023-08-20T05:26:31;4.78;;;3.40;;
21192;SDS011;10754;51.106;7.164;2023-08-20T05:28:56;4.00;;;3.30;;
21192;SDS011;10754;51.106;7.164;2023-08-20T05:31:21;5.50;;;3.38;;
21192;SDS011;10754;51.106;7.164;2023-08-20T05:33:47;3.88;;;3.30;;
21192;SDS011;10754;51.106;7.164;2023-08-20T05:36:13;4.32;;;3.10;;
21192;SDS011;10754;51.106;7.164;2023-08-20T05:38:39;6.65;;;3.60;;
21192;SDS011;10754;51.106;7.164;2023-08-20T05:41:07;3.97;;;3.67;;
21192;SDS011;10754;51.106;7.164;2023-08-20T05:43:33;8.93;;;4.00;;
21192;SDS011;10754;51.106;7.164;2023-08-20T05:45:58;4.00;;;3.60;;
21192;SDS011;10754;51.106;7.164;2023-08-20T05:48:24;6.57;;;3.95;;
21192;SDS011;10754;51.106;7.164;2023-08-20T05:50:49;3.47;;;3.17;;
21192;SDS011;10754;51.106;7.164;2023-08-20T05:53:15;6.18;;;3.38;;
21192;SDS011;10754;51.106;7.164;2023-08-20T05:55:40;4.40;;;4.00;;
21192;SDS011;10754;51.106;7.164;2023-08-20T05:58:05;5.88;;;4.22;;
21192;SDS011;10754;51.106;7.164;2023-08-20T06:00:31;4.90;;;3.90;;
21192;SDS011;10754;51.106;7.164;2023-08-20T06:02:57;4.72;;;3.78;;
21192;SDS011;10754;51.106;7.164;2023-08-20T06:05:22;5.07;;;4.00;;
21192;SDS011;10754;51.106;7.164;2023-08-20T06:07:47;5.47;;;3.80;;
21192;SDS011;10754;51.106;7.164;2023-08-20T06:10:13;5.18;;;3.85;;
21192;SDS011;10754;51.106;7.164;2023-08-20T06:12:39;4.18;;;3.10;;
21192;SDS011;10754;51.106;7.164;2023-08-20T06:15:04;4.78;;;3.08;;
21192;SDS011;10754;51.106;7.164;2023-08-20T06:17:31;3.47;;;3.17;;
21192;SDS011;10754;51.106;7.164;2023-08-20T06:19:56;5.35;;;3.65;;
21192;SDS011;10754;51.106;7.164;2023-08-20T06:22:22;3.67;;;3.38;;
21192;SDS011;10754;51.106;7.164;2023-08-20T06:24:47;8.90;;;4.07;;
21192;SDS011;10754;51.106;7.164;2023-08-20T06:27:13;4.72;;;3.95;;
21192;SDS011;10754;51.106;7.164;2023-08-20T06:29:39;8.32;;;5.13;;
21192;SDS011;10754;51.106;7.164;2023-08-20T06:32:04;5.65;;;5.18;;
21192;SDS011;10754;51.106;7.164;2023-08-20T06:34:30;5.90;;;5.30;;
21192;SDS011;10754;51.106;7.164;2023-08-20T06:36:55;5.47;;;5.00;;
21192;SDS011;10754;51.106;7.164;2023-08-20T06:39:21;4.28;;;3.88;;
21192;SDS011;10754;51.106;7.164;2023-08-20T06:41:47;4.75;;;4.15;;
21192;SDS011;10754;51.106;7.164;2023-08-20T06:44:14;6.15;;;5.30;;
21192;SDS011;10754;51.106;7.164;2023-08-20T06:46:40;5.70;;;5.20;;
21192;SDS011;10754;51.106;7.164;2023-08-20T06:49:05;6.28;;;5.78;;
21192;SDS011;10754;51.106;7.164;2023-08-20T06:51:31;6.00;;;5.50;;
21192;SDS011;10754;51.106;7.164;2023-08-20T06:53:57;5.65;;;5.03;;
21192;SDS011;10754;51.106;7.164;2023-08-20T06:56:23;5.85;;;5.43;;
21192;SDS011;10754;51.106;7.164;2023-08-20T06:58:48;5.65;;;5.05;;
21192;SDS011;10754;51.106;7.164;2023-08-20T07:01:14;5.68;;;5.20;;
21192;SDS011;10754;51.106;7.164;2023-08-20T07:03:40;6.22;;;5.63;;
21192;SDS011;10754;51.106;7.164;2023-08-20T07:06:06;6.30;;;5.65;;
21192;SDS011;10754;51.106;7.164;2023-08-20T07:08:34;6.07;;;5.55;;
21192;SDS011;10754;51.106;7.164;2023-08-20T07:11:00;5.40;;;4.90;;
21192;SDS011;10754;51.106;7.164;2023-08-20T07:13:25;7.00;;;6.30;;
21192;SDS011;10754;51.106;7.164;2023-08-20T07:15:51;5.47;;;4.70;;
21192;SDS011;10754;51.106;7.164;2023-08-20T07:18:16;6.50;;;4.63;;
21192;SDS011;10754;51.106;7.164;2023-08-20T07:20:42;5.40;;;4.60;;
21192;SDS011;10754;51.106;7.164;2023-08-20T07:23:09;5.53;;;4.22;;
21192;SDS011;10754;51.106;7.164;2023-08-20T07:25:38;6.25;;;5.65;;
21192;SDS011;10754;51.106;7.164;2023-08-20T07:28:05;6.65;;;6.05;;
21192;SDS011;10754;51.106;7.164;2023-08-20T07:30:33;4.80;;;4.40;;
21192;SDS011;10754;51.106;7.164;2023-08-20T07:32:59;4.70;;;4.28;;
21192;SDS011;10754;51.106;7.164;2023-08-20T07:35:24;4.63;;;4.20;;
21192;SDS011;10754;51.106;7.164;2023-08-20T07:37:50;4.32;;;3.92;;
21192;SDS011;10754;51.106;7.164;2023-08-20T07:40:15;4.60;;;4.22;;
21192;SDS011;10754;51.106;7.164;2023-08-20T07:42:41;5.70;;;5.20;;
21192;SDS011;10754;51.106;7.164;2023-08-20T07:45:07;4.47;;;4.03;;
21192;SDS011;10754;51.106;7.164;2023-08-20T07:47:34;5.45;;;4.10;;
21192;SDS011;10754;51.106;7.164;2023-08-20T07:50:00;4.53;;;4.10;;
21192;SDS011;10754;51.106;7.164;2023-08-20T07:52:26;3.92;;;3.63;;
21192;SDS011;10754;51.106;7.164;2023-08-20T07:54:51;4.78;;;4.32;;
21192;SDS011;10754;51.106;7.164;2023-08-20T07:57:17;4.60;;;4.20;;
21192;SDS011;10754;51.106;7.164;2023-08-20T07:59:42;4.18;;;3.88;;
21192;SDS011;10754;51.106;7.164;2023-08-20T08:02:08;4.03;;;3.72;;
21192;SDS011;10754;51.106;7.164;2023-08-20T08:04:33;4.93;;;3.75;;
21192;SDS011;10754;51.106;7.164;2023-08-20T08:06:59;4.80;;;4.40;;
21192;SDS011;10754;51.106;7.164;2023-08-20T08:09:29;5.78;;;4.40;;
21192;SDS011;10754;51.106;7.164;2023-08-20T08:11:55;5.32;;;4.88;;
21192;SDS011;10754;51.106;7.164;2023-08-20T08:14:21;5.88;;;4.93;;
21192;SDS011;10754;51.106;7.164;2023-08-20T08:16:47;5.10;;;4.70;;
21192;SDS011;10754;51.106;7.164;2023-08-20T08:19:13;5.53;;;4.85;;
21192;SDS011;10754;51.106;7.164;2023-08-20T08:21:39;5.22;;;4.82;;
21192;SDS011;10754;51.106;7.164;2023-08-20T08:24:04;5.18;;;4.63;;
21192;SDS011;10754;51.106;7.164;2023-08-20T08:26:30;6.07;;;4.72;;
21192;SDS011;10754;51.106;7.164;2023-08-20T08:28:58;5.10;;;4.80;;
21192;SDS011;10754;51.106;7.164;2023-08-20T08:31:24;8.65;;;5.45;;
21192;SDS011;10754;51.106;7.164;2023-08-20T08:33:49;5.20;;;4.70;;
21192;SDS011;10754;51.106;7.164;2023-08-20T08:36:15;5.85;;;5.35;;
21192;SDS011;10754;51.106;7.164;2023-08-20T08:38:42;4.63;;;4.32;;
21192;SDS011;10754;51.106;7.164;2023-08-20T08:41:10;5.18;;;4.78;;
21192;SDS011;10754;51.106;7.164;2023-08-20T08:43:40;4.80;;;4.40;;
21192;SDS011;10754;51.106;7.164;2023-08-20T08:46:06;8.90;;;5.18;;
21192;SDS011;10754;51.106;7.164;2023-08-20T08:48:33;6.40;;;5.70;;
21192;SDS011;10754;51.106;7.164;2023-08-20T08:51:00;5.82;;;5.32;;
21192;SDS011;10754;51.106;7.164;2023-08-20T08:53:26;6.25;;;4.82;;
21192;SDS011;10754;51.106;7.164;2023-08-20T08:55:52;5.00;;;4.35;;
21192;SDS011;10754;51.106;7.164;2023-08-20T08:58:18;4.93;;;4.53;;
21192;SDS011;10754;51.106;7.164;2023-08-20T09:00:43;4.82;;;4.43;;
21192;SDS011;10754;51.106;7.164;2023-08-20T09:03:09;4.90;;;4.50;;
21192;SDS011;10754;51.106;7.164;2023-08-20T09:05:51;5.25;;;4.85;;
21192;SDS011;10754;51.106;7.164;2023-08-20T09:08:27;4.97;;;4.57;;
21192;SDS011;10754;51.106;7.164;2023-08-20T09:10:54;4.70;;;4.30;;
21192;SDS011;10754;51.106;7.164;2023-08-20T09:13:22;4.65;;;4.25;;
21192;SDS011;10754;51.106;7.164;2023-08-20T09:16:09;5.30;;;4.80;;
21192;SDS011;10754;51.106;7.164;2023-08-20T09:18:45;4.70;;;4.22;;
21192;SDS011;10754;51.106;7.164;2023-08-20T09:21:11;4.70;;;4.40;;
21192;SDS011;10754;51.106;7.164;2023-08-20T09:23:38;6.63;;;4.70;;
21192;SDS011;10754;51.106;7.164;2023-08-20T09:26:05;5.03;;;4.63;;
21192;SDS011;10754;51.106;7.164;2023-08-20T09:28:42;4.85;;;4.53;;
21192;SDS011;10754;51.106;7.164;2023-08-20T09:31:08;4.65;;;4.25;;
21192;SDS011;10754;51.106;7.164;2023-08-20T09:33:34;4.85;;;4.40;;
21192;SDS011;10754;51.106;7.164;2023-08-20T09:36:00;5.13;;;4.63;;
21192;SDS011;10754;51.106;7.164;2023-08-20T09:38:28;5.40;;;4.88;;
21192;SDS011;10754;51.106;7.164;2023-08-20T09:40:54;5.60;;;4.90;;
21192;SDS011;10754;51.106;7.164;2023-08-20T09:43:22;5.35;;;4.85;;
21192;SDS011;10754;51.106;7.164;2023-08-20T09:45:54;5.22;;;4.30;;
21192;SDS011;10754;51.106;7.164;2023-08-20T09:48:21;4.88;;;4.47;;
21192;SDS011;10754;51.106;7.164;2023-08-20T09:50:48;4.28;;;3.97;;
21192;SDS011;10754;51.106;7.164;2023-08-20T09:53:18;5.70;;;5.20;;
21192;SDS011;10754;51.106;7.164;2023-08-20T09:55:54;5.30;;;4.90;;
21192;SDS011;10754;51.106;7.164;2023-08-20T09:58:26;4.75;;;4.35;;
21192;SDS011;10754;51.106;7.164;2023-08-20T10:00:52;4.30;;;3.90;;
21192;SDS011;10754;51.106;7.164;2023-08-20T10:03:18;4.85;;;4.13;;
21192;SDS011;10754;51.106;7.164;2023-08-20T10:05:46;4.90;;;4.50;;
21192;SDS011;10754;51.106;7.164;2023-08-20T10:08:14;5.00;;;4.60;;
21192;SDS011;10754;51.106;7.164;2023-08-20T10:10:40;5.95;;;4.85;;
21192;SDS011;10754;51.106;7.164;2023-08-20T10:13:06;6.10;;;4.70;;
21192;SDS011;10754;51.106;7.164;2023-08-20T10:15:31;4.05;;;3.75;;
21192;SDS011;10754;51.106;7.164;2023-08-20T10:17:59;4.72;;;4.32;;
21192;SDS011;10754;51.106;7.164;2023-08-20T10:20:26;4.75;;;4.35;;
21192;SDS011;10754;51.106;7.164;2023-08-20T10:22:57;4.93;;;4.53;;
21192;SDS011;10754;51.106;7.164;2023-08-20T10:25:25;5.32;;;4.82;;
21192;SDS011;10754;51.106;7.164;2023-08-20T10:27:51;5.22;;;4.80;;
21192;SDS011;10754;51.106;7.164;2023-08-20T10:30:19;5.28;;;4.78;;
21192;SDS011;10754;51.106;7.164;2023-08-20T10:35:28;4.35;;;3.92;;
21192;SDS011;10754;51.106;7.164;2023-08-20T10:38:12;4.70;;;4.30;;
21192;SDS011;10754;51.106;7.164;2023-08-20T10:43:27;5.03;;;3.83;;
21192;SDS011;10754;51.106;7.164;2023-08-20T10:46:15;4.32;;;4.03;;
21192;SDS011;10754;51.106;7.164;2023-08-20T10:48:43;4.78;;;3.85;;
21192;SDS011;10754;51.106;7.164;2023-08-20T10:51:15;5.35;;;4.55;;
21192;SDS011;10754;51.106;7.164;2023-08-20T10:53:42;4.82;;;4.43;;
21192;SDS011;10754;51.106;7.164;2023-08-20T10:56:13;4.38;;;3.97;;
21192;SDS011;10754;51.106;7.164;2023-08-20T10:58:41;4.45;;;4.05;;
21192;SDS011;10754;51.106;7.164;2023-08-20T11:01:12;3.90;;;3.60;;
21192;SDS011;10754;51.106;7.164;2023-08-20T11:03:42;3.78;;;3.40;;
21192;SDS011;10754;51.106;7.164;2023-08-20T11:06:11;3.92;;;3.42;;
21192;SDS011;10754;51.106;7.164;2023-08-20T11:08:37;4.40;;;4.00;;
21192;SDS011;10754;51.106;7.164;2023-08-20T11:11:05;4.70;;;4.28;;
21192;SDS011;10754;51.106;7.164;2023-08-20T11:13:32;4.35;;;3.95;;
21192;SDS011;10754;51.106;7.164;2023-08-20T11:15:58;4.00;;;3.70;;
21192;SDS011;10754;51.106;7.164;2023-08-20T11:18:24;4.00;;;3.40;;
21192;SDS011;10754;51.106;7.164;2023-08-20T11:20:50;3.55;;;3.15;;
21192;SDS011;10754;51.106;7.164;2023-08-20T11:23:16;5.30;;;3.65;;
21192;SDS011;10754;51.106;7.164;2023-08-20T11:25:42;3.47;;;3.17;;
21192;SDS011;10754;51.106;7.164;2023-08-20T11:28:08;4.07;;;3.28;;
21192;SDS011;10754;51.106;7.164;2023-08-20T11:30:34;4.85;;;4.20;;
21192;SDS011;10754;51.106;7.164;2023-08-20T11:33:00;4.03;;;3.70;;
21192;SDS011;10754;51.106;7.164;2023-08-20T11:35:25;3.40;;;3.13;;
21192;SDS011;10754;51.106;7.164;2023-08-20T11:37:52;4.70;;;3.58;;
21192;SDS011;10754;51.106;7.164;2023-08-20T11:40:20;4.15;;;3.75;;
21192;SDS011;10754;51.106;7.164;2023-08-20T11:42:46;4.03;;;3.50;;
21192;SDS011;10754;51.106;7.164;2023-08-20T11:45:11;4.85;;;3.30;;
21192;SDS011;10754;51.106;7.164;2023-08-20T11:47:40;3.70;;;3.40;;
21192;SDS011;10754;51.106;7.164;2023-08-20T11:50:09;3.72;;;3.42;;
21192;SDS011;10754;51.106;7.164;2023-08-20T11:52:35;4.00;;;3.70;;
21192;SDS011;10754;51.106;7.164;2023-08-20T11:55:01;3.55;;;3.13;;
21192;SDS011;10754;51.106;7.164;2023-08-20T11:57:28;4.93;;;3.70;;
21192;SDS011;10754;51.106;7.164;2023-08-20T11:59:54;3.10;;;2.90;;
21192;SDS011;10754;51.106;7.164;2023-08-20T12:02:26;3.63;;;3.33;;
21192;SDS011;10754;51.106;7.164;2023-08-20T12:04:54;3.80;;;3.50;;
21192;SDS011;10754;51.106;7.164;2023-08-20T12:07:24;3.30;;;2.95;;
21192;SDS011;10754;51.106;7.164;2023-08-20T12:09:52;3.42;;;3.22;;
21192;SDS011;10754;51.106;7.164;2023-08-20T12:12:20;3.30;;;3.00;;
21192;SDS011;10754;51.106;7.164;2023-08-20T12:14:46;4.18;;;3.63;;
21192;SDS011;10754;51.106;7.164;2023-08-20T12:17:12;5.03;;;4.63;;
21192;SDS011;10754;51.106;7.164;2023-08-20T12:19:41;3.55;;;2.78;;
21192;SDS011;10754;51.106;7.164;2023-08-20T12:22:07;3.00;;;2.80;;
21192;SDS011;10754;51.106;7.164;2023-08-20T12:24:33;3.28;;;3.08;;
21192;SDS011;10754;51.106;7.164;2023-08-20T12:26:59;4.47;;;2.92;;
21192;SDS011;10754;51.106;7.164;2023-08-20T12:29:24;3.13;;;2.90;;
21192;SDS011;10754;51.106;7.164;2023-08-20T12:31:50;3.60;;;3.30;;
21192;SDS011;10754;51.106;7.164;2023-08-20T12:34:15;3.30;;;3.00;;
21192;SDS011;10754;51.106;7.164;2023-08-20T12:36:41;3.00;;;2.80;;
21192;SDS011;10754;51.106;7.164;2023-08-20T12:39:06;4.30;;;4.00;;
21192;SDS011;10754;51.106;7.164;2023-08-20T12:41:32;4.15;;;3.75;;
21192;SDS011;10754;51.106;7.164;2023-08-20T12:44:00;3.70;;;3.40;;
21192;SDS011;10754;51.106;7.164;2023-08-20T12:46:25;3.75;;;3.10;;
21192;SDS011;10754;51.106;7.164;2023-08-20T12:48:51;3.42;;;3.13;;
21192;SDS011;10754;51.106;7.164;2023-08-20T12:51:17;4.00;;;3.70;;
21192;SDS011;10754;51.106;7.164;2023-08-20T12:53:43;5.35;;;4.22;;
21192;SDS011;10754;51.106;7.164;2023-08-20T12:56:09;3.20;;;2.97;;
21192;SDS011;10754;51.106;7.164;2023-08-20T12:58:34;3.33;;;3.05;;
21192;SDS011;10754;51.106;7.164;2023-08-20T13:01:00;3.33;;;3.03;;
21192;SDS011;10754;51.106;7.164;2023-08-20T13:03:26;3.67;;;3.38;;
21192;SDS011;10754;51.106;7.164;2023-08-20T13:05:52;3.22;;;3.03;;
21192;SDS011;10754;51.106;7.164;2023-08-20T13:08:18;10.02;;;3.30;;
21192;SDS011;10754;51.106;7.164;2023-08-20T13:10:46;3.25;;;3.00;;
21192;SDS011;10754;51.106;7.164;2023-08-20T13:13:18;3.25;;;2.95;;
21192;SDS011;10754;51.106;7.164;2023-08-20T13:15:47;4.55;;;3.63;;
21192;SDS011;10754;51.106;7.164;2023-08-20T13:18:13;3.45;;;3.15;;
21192;SDS011;10754;51.106;7.164;2023-08-20T13:20:40;2.47;;;2.28;;
21192;SDS011;10754;51.106;7.164;2023-08-20T13:23:05;3.58;;;3.28;;
21192;SDS011;10754;51.106;7.164;2023-08-20T13:25:31;3.63;;;3.03;;
21192;SDS011;10754;51.106;7.164;2023-08-20T13:27:56;5.45;;;5.05;;
21192;SDS011;10754;51.106;7.164;2023-08-20T13:30:22;3.22;;;2.92;;
21192;SDS011;10754;51.106;7.164;2023-08-20T13:32:48;4.10;;;3.80;;
21192;SDS011;10754;51.106;7.164;2023-08-20T13:35:14;3.08;;;2.78;;
21192;SDS011;10754;51.106;7.164;2023-08-20T13:37:39;3.53;;;3.08;;
21192;SDS011;10754;51.106;7.164;2023-08-20T13:40:05;5.35;;;4.95;;
21192;SDS011;10754;51.106;7.164;2023-08-20T13:42:34;4.00;;;3.00;;
21192;SDS011;10754;51.106;7.164;2023-08-20T13:45:00;3.42;;;3.13;;
21192;SDS011;10754;51.106;7.164;2023-08-20T13:47:26;2.50;;;2.30;;
21192;SDS011;10754;51.106;7.164;2023-08-20T13:49:51;2.60;;;2.40;;
21192;SDS011;10754;51.106;7.164;2023-08-20T13:52:17;3.20;;;2.90;;
21192;SDS011;10754;51.106;7.164;2023-08-20T13:54:42;3.70;;;2.95;;
21192;SDS011;10754;51.106;7.164;2023-08-20T13:57:08;2.53;;;2.33;;
21192;SDS011;10754;51.106;7.164;2023-08-20T13:59:33;3.30;;;3.00;;
21192;SDS011;10754;51.106;7.164;2023-08-20T14:01:59;2.83;;;2.63;;
21192;SDS011;10754;51.106;7.164;2023-08-20T14:04:24;2.83;;;2.63;;
21192;SDS011;10754;51.106;7.164;2023-08-20T14:06:50;3.08;;;2.88;;
21192;SDS011;10754;51.106;7.164;2023-08-20T14:09:16;3.10;;;2.78;;
21192;SDS011;10754;51.106;7.164;2023-08-20T14:11:45;3.08;;;2.80;;
21192;SDS011;10754;51.106;7.164;2023-08-20T14:14:11;2.60;;;2.40;;
21192;SDS011;10754;51.106;7.164;2023-08-20T14:16:37;3.17;;;2.88;;
21192;SDS011;10754;51.106;7.164;2023-08-20T14:19:02;4.13;;;3.05;;
21192;SDS011;10754;51.106;7.164;2023-08-20T14:21:28;2.92;;;2.40;;
21192;SDS011;10754;51.106;7.164;2023-08-20T14:23:53;3.15;;;2.90;;
21192;SDS011;10754;51.106;7.164;2023-08-20T14:26:19;3.10;;;2.80;;
21192;SDS011;10754;51.106;7.164;2023-08-20T14:28:44;5.15;;;2.72;;
21192;SDS011;10754;51.106;7.164;2023-08-20T14:31:10;4.28;;;2.50;;
21192;SDS011;10754;51.106;7.164;2023-08-20T14:33:36;2.83;;;2.50;;
21192;SDS011;10754;51.106;7.164;2023-08-20T14:36:01;3.13;;;2.80;;
21192;SDS011;10754;51.106;7.164;2023-08-20T14:38:28;2.70;;;2.45;;
21192;SDS011;10754;51.106;7.164;2023-08-20T14:40:58;2.88;;;2.67;;
21192;SDS011;10754;51.106;7.164;2023-08-20T14:43:27;3.20;;;3.00;;
21192;SDS011;10754;51.106;7.164;2023-08-20T14:45:53;3.05;;;2.85;;
21192;SDS011;10754;51.106;7.164;2023-08-20T14:48:20;5.57;;;3.25;;
21192;SDS011;10754;51.106;7.164;2023-08-20T14:50:46;2.88;;;2.67;;
21192;SDS011;10754;51.106;7.164;2023-08-20T14:53:13;3.42;;;3.22;;